Terminal Aerodrome Forecast
Issued by NWS Jacksonville, FL

Home | Current Version | Previous Version | Text Only | Print | Product List | Glossary On
Versions: 1 2 3 4 5 6 7 8 9 10 11 12 13 14 15 16 17 18 19
000
FTUS42 KJAX 291742
TAFJAX
TAF
KJAX 291742Z 2918/3018 08011G18KT P6SM SCT040
     FM300100 07007KT P6SM FEW035 SCT070
     FM300900 06005KT P6SM VCSH SCT020 BKN060
     FM301400 09009KT P6SM VCSH BKN030 BKN050
     FM301700 09012G20KT P6SM VCSH SCT035 BKN060 BKN250=

USA.gov is the U.S. government's official web portal to all federal, state and local government web resources and services.